Impacts METAR Board
IDs:

KPIT - Pittsburgh Intl, PA, US

Updated at: 0300 UTC 20 Mar 2019
Potential Impact None Slight Moderate High
Time 19/15Z 19/16Z 19/17Z 19/18Z 19/19Z 19/20Z 19/21Z 19/22Z 19/23Z 20/00Z 20/01Z 20/02Z 20/03Z
Temp38 39 42 42 46 44 47 45 44 41 40 40 36
Dewpt21 13 14 14 14 13 16 15 16 18 18 18 19
Altim30.43 30.43 30.43 30.41 30.38 30.37 30.35 30.33 30.34 30.35 30.34 30.34 30.34
VIS10 10 10 10 10 10 10 10 10 10 10 10 10
CIG250 250 -- -- 70 -- -- -- -- -- -- -- --
CoverBKNBKNSCTSCTBKNSCTSCTFEWFEWFEWFEWFEWCLR
FltCatVFRVFRVFRVFRVFRVFRVFRVFRVFRVFRVFRVFRVFR
WX--------------------------
WDir0310300240260270320030032035000
WSpd0 5 4 6 7 5 6 4 7 6 4 3 0
WGst-- -- -- -- 15 -- -- -- -- -- -- -- --
Raw hourly METARs
KPIT 191451Z 00000KT 10SM BKN250 03/M06 A3043 RMK AO2 SLP322 T00331061 51014
KPIT 191551Z 31005KT 10SM SCT045 BKN250 04/M11 A3043 RMK AO2 SLP323 T00391106
KPIT 191651Z 30004KT 10SM SCT055 06/M10 A3043 RMK AO2 SLP322 T00561100
KPIT 191751Z 24006KT 10SM SCT065 06/M10 A3041 RMK AO2 SLP317 T00561100 10067 21039 58005
KPIT 191851Z 26007G15KT 190V320 10SM BKN070 08/M10 A3038 RMK AO2 SLP305 T00781100
KPIT 191951Z 27005KT 10SM SCT070 07/M11 A3037 RMK AO2 SLP301 T00671106
KPIT 192051Z 32006KT 10SM SCT070 08/M09 A3035 RMK AO2 SLP296 T00831089 56020
KPIT 192151Z VRB04KT 10SM FEW075 07/M09 A3033 RMK AO2 SLP291 T00721094
KPIT 192251Z 30007KT 10SM FEW080 FEW250 07/M09 A3034 RMK AO2 SLP292 T00671089
KPIT 192351Z 32006KT 10SM FEW250 05/M08 A3035 RMK AO2 SLP297 T00501078 10083 20050 55001
KPIT 200051Z 35004KT 10SM FEW250 04/M08 A3034 RMK AO2 SLP296 T00441078
KPIT 200151Z VRB03KT 10SM FEW250 04/M08 A3034 RMK AO2 SLP293 T00441078
KPIT 200251Z 00000KT 10SM CLR 02/M07 A3034 RMK AO2 SLP292 T00221072 58003



Page loaded:  03:36 UTC  |   08:36 PM Pacific  |   09:36 PM Mountain  |   10:36 PM Central  |   11:36 PM Eastern

 

ADVISORIES

FORECASTS

FORECASTS

OBSERVATIONS

USER TOOLS

ABOUT US